Time;durP1;ratioP1;P1;durP2;ratioP2;P2;SDS_P1;SDS_P2;PMS_P1;PMS_P2;Temp;Humidity;BMP_temperature;BMP_pressure;BME280_temperature;BME280_humidity;BME280_pressure;Samples;Min_cycle;Max_cycle;Signal;HPM_P1;HPM_P2
2023/04/12 00:01:37;;;;;;;6.43;5.93;;;;;;;20.51;35.72;94125.16;6136422;28;109783;-63
2023/04/12 00:04:40;;;;;;;6.33;5.83;;;;;;;20.51;35.86;94117.19;6135390;28;108918;-63
2023/04/12 00:07:45;;;;;;;6.17;5.77;;;;;;;20.50;35.94;94113.75;6120820;28;109154;-63
2023/04/12 00:10:49;;;;;;;5.20;4.80;;;;;;;20.51;35.60;94114.53;6131187;28;108952;-63
2023/04/12 00:13:53;;;;;;;6.07;5.57;;;;;;;20.51;35.82;94112.66;6137670;28;109625;-64
2023/04/12 00:16:57;;;;;;;6.50;5.90;;;;;;;20.51;35.91;94107.34;6134353;28;108880;-63
2023/04/12 00:20:00;;;;;;;5.67;5.27;;;;;;;20.50;35.69;94118.25;6144462;28;109348;-63
2023/04/12 00:23:03;;;;;;;6.70;6.20;;;;;;;20.50;36.08;94103.13;6136924;28;108909;-65
2023/04/12 00:26:06;;;;;;;6.10;5.70;;;;;;;20.50;35.95;94104.97;6134703;28;109009;-64
2023/04/12 00:29:11;;;;;;;5.70;5.30;;;;;;;20.49;35.89;94100.75;6123468;28;109285;-64
2023/04/12 00:32:14;;;;;;;5.57;5.17;;;;;;;20.49;35.90;94101.53;6134648;28;110322;-65
2023/04/12 00:35:18;;;;;;;5.73;5.33;;;;;;;20.49;35.70;94101.53;6131518;28;109127;-64
2023/04/12 00:38:21;;;;;;;5.50;5.10;;;;;;;20.48;35.74;94105.28;6126021;28;109014;-63
2023/04/12 00:41:26;;;;;;;5.97;5.50;;;;;;;20.50;35.81;94102.31;6127068;28;109271;-64
2023/04/12 00:44:31;;;;;;;5.83;5.33;;;;;;;20.49;35.77;94100.75;6133273;28;108981;-64
2023/04/12 00:47:36;;;;;;;5.60;5.20;;;;;;;20.48;36.05;94088.56;6135626;28;108900;-64
2023/04/12 00:50:43;;;;;;;5.60;5.20;;;;;;;20.49;35.70;94098.88;6133382;28;109130;-65
2023/04/12 00:53:46;;;;;;;6.20;5.70;;;;;;;20.49;35.71;94093.56;6126794;28;109012;-63
2023/04/12 00:56:49;;;;;;;5.57;5.17;;;;;;;20.48;35.72;94089.34;6130509;28;108907;-64
2023/04/12 00:59:54;;;;;;;5.63;5.10;;;;;;;20.50;35.74;94091.69;6135620;28;110266;-64
2023/04/12 01:03:01;;;;;;;6.17;5.57;;;;;;;20.47;35.76;94082.47;6118423;28;109327;-65
2023/04/12 01:06:13;;;;;;;5.77;5.27;;;;;;;20.48;35.90;94077.94;6138848;28;108960;-65
2023/04/12 01:09:29;;;;;;;6.30;5.80;;;;;;;20.47;35.70;94076.38;6137213;28;108966;-65
2023/04/12 01:12:46;;;;;;;5.60;5.20;;;;;;;20.47;35.66;94077.16;6140758;28;109147;-64
2023/04/12 01:15:58;;;;;;;5.40;4.90;;;;;;;20.46;35.71;94080.13;6127113;28;108931;-64
2023/04/12 01:19:11;;;;;;;5.30;4.90;;;;;;;20.47;35.76;94076.38;6139737;28;108883;-68
2023/04/12 01:22:37;;;;;;;5.70;5.20;;;;;;;20.46;35.66;94070.28;6137664;28;109457;-65
2023/04/12 01:25:52;;;;;;;6.27;5.67;;;;;;;20.47;35.72;94071.06;6128250;28;108946;-64
2023/04/12 01:28:58;;;;;;;5.80;5.40;;;;;;;20.45;35.58;94073.28;6136459;28;108801;-64
2023/04/12 01:32:03;;;;;;;5.17;4.77;;;;;;;20.47;35.83;94079.03;6139513;28;108865;-65
2023/04/12 01:35:07;;;;;;;5.73;5.23;;;;;;;20.45;35.33;94073.28;6136034;28;108963;-63
2023/04/12 01:38:11;;;;;;;5.50;5.03;;;;;;;20.45;35.64;94071.41;6123166;28;108945;-64
2023/04/12 01:41:15;;;;;;;6.07;5.57;;;;;;;20.46;35.76;94064.19;6139858;28;108987;-64
2023/04/12 01:44:20;;;;;;;5.50;5.10;;;;;;;20.45;35.84;94075.94;6133105;28;111251;-64
2023/04/12 01:47:23;;;;;;;5.60;5.20;;;;;;;20.45;35.81;94071.41;6137965;28;108975;-64
2023/04/12 01:50:35;;;;;;;5.30;4.90;;;;;;;20.43;35.81;94062.19;6122743;28;109819;-64
2023/04/12 01:53:48;;;;;;;5.40;5.00;;;;;;;20.45;35.83;94068.72;6136218;28;108713;-65
2023/04/12 01:56:56;;;;;;;5.53;5.13;;;;;;;20.44;35.84;94066.41;6137679;28;108955;-64
2023/04/12 02:00:05;;;;;;;5.37;4.97;;;;;;;20.45;35.56;94070.63;6127257;28;108993;-64
2023/04/12 02:03:11;;;;;;;5.90;5.47;;;;;;;20.44;35.69;94061.09;6133098;28;109300;-71
2023/04/12 02:06:14;;;;;;;6.30;5.80;;;;;;;20.44;35.36;94067.19;6136403;28;109068;-63
2023/04/12 02:09:17;;;;;;;5.97;5.27;;;;;;;20.44;35.53;94053.13;6139072;28;108890;-64
2023/04/12 02:12:22;;;;;;;6.57;6.07;;;;;;;20.45;35.61;94052.00;6111568;28;109251;-64
2023/04/12 02:15:27;;;;;;;6.57;6.07;;;;;;;20.45;35.70;94054.66;6135822;28;109131;-63
2023/04/12 02:18:30;;;;;;;6.70;6.20;;;;;;;20.44;35.80;94055.78;6136954;28;109110;-63
2023/04/12 02:21:40;;;;;;;6.97;6.47;;;;;;;20.42;35.55;94042.03;6136485;28;108919;-63
2023/04/12 02:24:43;;;;;;;7.10;6.43;;;;;;;20.43;35.74;94043.59;6132295;28;108997;-64
2023/04/12 02:27:47;;;;;;;8.27;7.67;;;;;;;20.43;35.64;94047.03;6139030;28;108943;-63
2023/04/12 02:30:52;;;;;;;8.73;8.03;;;;;;;20.41;35.67;94043.91;6146058;28;108901;-63
2023/04/12 02:33:56;;;;;;;8.23;7.53;;;;;;;20.42;35.75;94042.03;6127618;28;109201;-64
2023/04/12 02:36:59;;;;;;;9.67;8.77;;;;;;;20.41;35.69;94046.56;6136893;28;108989;-64
2023/04/12 02:40:04;;;;;;;9.30;8.60;;;;;;;20.42;35.64;94048.13;6144118;28;108976;-63
2023/04/12 02:43:08;;;;;;;8.90;8.20;;;;;;;20.42;35.69;94042.03;6138405;28;108944;-64
2023/04/12 02:46:16;;;;;;;9.30;8.53;;;;;;;20.41;35.68;94051.09;6127944;28;109068;-64
2023/04/12 02:49:19;;;;;;;9.60;8.30;;;;;;;20.41;35.82;94049.22;6138286;28;108876;-65
2023/04/12 02:52:23;;;;;;;8.37;7.67;;;;;;;20.42;35.75;94037.50;6138729;28;108903;-65
2023/04/12 02:55:26;;;;;;;8.87;8.17;;;;;;;20.40;35.96;94042.34;6138276;28;108959;-65
2023/04/12 02:58:29;;;;;;;8.87;8.07;;;;;;;20.41;35.91;94041.25;6127626;28;108903;-63
2023/04/12 03:01:33;;;;;;;8.60;7.90;;;;;;;20.40;35.85;94045.00;6138447;28;108843;-64
2023/04/12 03:04:38;;;;;;;8.30;7.60;;;;;;;20.39;35.72;94043.44;6135508;28;108867;-64
2023/04/12 03:07:42;;;;;;;7.73;7.07;;;;;;;20.38;35.81;94031.25;6129654;28;108967;-63
2023/04/12 03:10:45;;;;;;;8.07;7.27;;;;;;;20.39;35.78;94042.66;6135950;28;109014;-65
2023/04/12 03:13:48;;;;;;;7.83;7.13;;;;;;;20.39;35.79;94048.75;6135897;28;108912;-64
2023/04/12 03:16:52;;;;;;;10.33;9.50;;;;;;;20.34;36.82;94045.50;6135567;28;108879;-61
2023/04/12 03:19:56;;;;;;;15.43;14.10;;;;;;;20.28;36.93;94043.00;6131142;28;110808;-61
2023/04/12 03:23:00;;;;;;;19.43;17.73;;;;;;;20.02;37.80;94044.94;6135966;28;108952;-60
2023/04/12 03:26:03;;;;;;;17.40;15.90;;;;;;;19.84;37.97;94048.75;6136983;28;108877;-60
2023/04/12 03:29:07;;;;;;;16.40;15.00;;;;;;;19.67;37.90;94050.31;6137186;28;109113;-62
2023/04/12 03:32:14;;;;;;;13.90;12.70;;;;;;;19.56;38.33;94049.06;6124288;28;108987;-65
2023/04/12 03:35:17;;;;;;;14.03;12.83;;;;;;;19.47;38.35;94056.25;6135128;28;109011;-61
2023/04/12 03:38:22;;;;;;;13.97;12.70;;;;;;;19.42;38.72;94057.19;6123070;28;108953;-61
2023/04/12 03:41:25;;;;;;;13.20;12.10;;;;;;;19.41;39.18;94062.81;6126661;28;109182;-62
2023/04/12 03:44:28;;;;;;;13.43;12.23;;;;;;;19.56;38.46;94057.03;6128980;28;108940;-73
2023/04/12 03:47:33;;;;;;;13.80;12.53;;;;;;;19.55;38.28;94060.78;6140885;28;109088;-61
2023/04/12 03:50:43;;;;;;;14.90;13.50;;;;;;;19.54;38.32;94063.75;6136841;28;108947;-61
2023/04/12 03:53:46;;;;;;;13.80;12.60;;;;;;;19.55;38.26;94073.28;6131175;28;108908;-61
2023/04/12 03:56:49;;;;;;;13.03;11.80;;;;;;;19.60;38.48;94065.16;6136093;28;108858;-67
2023/04/12 03:59:52;;;;;;;13.53;12.33;;;;;;;19.73;38.24;94067.63;6136629;28;108939;-69
2023/04/12 04:02:57;;;;;;;15.10;13.60;;;;;;;19.79;38.22;94070.13;6130775;28;108982;-69
2023/04/12 04:06:00;;;;;;;13.77;12.47;;;;;;;19.92;37.72;94063.88;6126954;28;108991;-65
2023/04/12 04:09:04;;;;;;;13.13;12.03;;;;;;;20.07;36.98;94073.22;6138286;28;110267;-64
2023/04/12 04:12:07;;;;;;;12.17;11.07;;;;;;;20.17;36.50;94068.34;6136408;28;108960;-65
2023/04/12 04:15:11;;;;;;;12.60;11.50;;;;;;;20.22;36.67;94065.50;6133154;28;108947;-65
2023/04/12 04:18:16;;;;;;;12.17;11.07;;;;;;;20.24;37.32;94076.63;6133185;28;108976;-70
2023/04/12 04:21:21;;;;;;;11.67;10.53;;;;;;;20.29;37.21;94070.34;6132118;28;108965;-65
2023/04/12 04:24:24;;;;;;;11.60;10.47;;;;;;;20.30;37.62;94088.63;6124135;28;109237;-65
2023/04/12 04:27:29;;;;;;;10.90;10.00;;;;;;;20.32;37.79;94090.97;6102324;28;108892;-64
2023/04/12 04:30:33;;;;;;;10.60;9.73;;;;;;;20.34;37.70;94101.31;6112560;28;108981;-59
2023/04/12 04:33:38;;;;;;;10.53;9.30;;;;;;;20.31;37.42;94100.81;6112670;28;108896;-60
2023/04/12 04:36:41;;;;;;;10.47;9.60;;;;;;;20.26;37.49;94108.97;6112094;28;109779;-60
2023/04/12 04:39:44;;;;;;;10.50;9.60;;;;;;;20.24;37.51;94108.50;6125165;28;108927;-60
2023/04/12 04:42:53;;;;;;;9.47;8.60;;;;;;;20.20;37.20;94114.75;6161249;28;108960;-64
2023/04/12 04:45:57;;;;;;;9.67;8.93;;;;;;;20.18;37.46;94107.09;6161342;28;109315;-61
2023/04/12 04:49:01;;;;;;;8.73;8.10;;;;;;;20.19;37.30;94123.81;6160715;28;109041;-61
2023/04/12 04:52:06;;;;;;;9.60;8.70;;;;;;;20.18;37.38;94119.59;6151719;28;109755;-73
2023/04/12 04:55:10;;;;;;;8.97;8.27;;;;;;;20.16;37.34;94135.03;6160496;28;108862;-61
2023/04/12 04:58:13;;;;;;;8.63;8.03;;;;;;;20.18;37.49;94132.88;6160870;28;109230;-61
2023/04/12 05:01:16;;;;;;;9.60;8.90;;;;;;;20.17;37.19;94134.75;6155713;28;108894;-61
2023/04/12 05:04:21;;;;;;;8.93;7.93;;;;;;;20.17;37.67;94142.72;6156821;28;108804;-61
2023/04/12 05:07:25;;;;;;;8.80;8.10;;;;;;;20.14;37.41;94143.31;6160415;28;108972;-61
2023/04/12 05:10:28;;;;;;;8.53;7.83;;;;;;;20.16;37.36;94141.13;6141093;28;108904;-61
2023/04/12 05:13:31;;;;;;;8.50;7.90;;;;;;;20.14;37.17;94145.19;6125151;28;108952;-61
2023/04/12 05:16:34;;;;;;;9.47;8.77;;;;;;;20.14;37.28;94138.00;6135853;28;109038;-61
2023/04/12 05:19:39;;;;;;;8.20;7.53;;;;;;;20.14;37.36;94148.63;6136135;28;108896;-59
2023/04/12 05:22:43;;;;;;;8.10;7.43;;;;;;;20.15;37.08;94139.56;6135909;28;108916;-59
2023/04/12 05:25:47;;;;;;;7.53;6.90;;;;;;;20.15;37.10;94150.19;6125354;28;109902;-59
2023/04/12 05:28:50;;;;;;;8.20;7.50;;;;;;;20.16;37.16;94162.38;6136109;28;108903;-59
2023/04/12 05:31:53;;;;;;;8.30;7.60;;;;;;;20.18;37.02;94154.13;6135769;28;108888;-58
2023/04/12 05:34:57;;;;;;;8.03;7.43;;;;;;;20.16;37.10;94158.94;6131255;28;108840;-60
2023/04/12 05:38:00;;;;;;;8.50;7.67;;;;;;;20.15;36.93;94147.53;6129589;28;109056;-58
2023/04/12 05:41:04;;;;;;;7.47;6.87;;;;;;;20.16;37.14;94150.97;6157287;28;108914;-60
2023/04/12 05:44:07;;;;;;;7.03;6.53;;;;;;;20.15;37.17;94155.50;6160115;28;108936;-60
2023/04/12 05:47:10;;;;;;;7.17;6.57;;;;;;;20.17;37.12;94150.69;6149300;28;108963;-60
2023/04/12 05:50:15;;;;;;;7.20;6.70;;;;;;;20.17;37.04;94149.91;6162541;28;108922;-60
2023/04/12 05:53:18;;;;;;;7.47;6.87;;;;;;;20.15;37.32;94150.19;6164220;28;108879;-60
2023/04/12 05:56:21;;;;;;;7.37;6.67;;;;;;;20.15;36.98;94152.06;6164148;28;108909;-60
2023/04/12 05:59:24;;;;;;;7.50;7.00;;;;;;;20.15;37.19;94155.50;6134499;28;109042;-59
2023/04/12 06:02:27;;;;;;;7.50;6.70;;;;;;;20.16;37.21;94154.41;6140028;28;108923;-60
2023/04/12 06:05:34;;;;;;;7.57;6.87;;;;;;;20.17;37.02;94158.66;6139565;28;109017;-58
2023/04/12 06:08:38;;;;;;;6.60;6.10;;;;;;;20.17;37.02;94165.84;6141454;28;109923;-59
2023/04/12 06:11:41;;;;;;;7.17;6.57;;;;;;;20.16;37.17;94169.56;6152154;28;109039;-60
2023/04/12 06:14:44;;;;;;;7.10;6.50;;;;;;;20.16;37.29;94169.56;6163917;28;108869;-61
2023/04/12 06:17:47;;;;;;;6.10;5.60;;;;;;;20.16;37.08;94186.28;6163681;28;108892;-59
2023/04/12 06:20:52;;;;;;;7.10;6.50;;;;;;;20.16;37.08;94180.19;6157639;28;108916;-59
2023/04/12 06:23:55;;;;;;;6.47;5.97;;;;;;;20.18;37.06;94184.13;6160275;28;109073;-59
2023/04/12 06:26:58;;;;;;;6.30;5.80;;;;;;;20.21;37.55;94191.47;6163228;28;109009;-59
2023/04/12 06:30:01;;;;;;;6.80;6.20;;;;;;;20.26;37.54;94196.63;6162884;28;108999;-59
2023/04/12 06:33:04;;;;;;;6.90;6.30;;;;;;;20.30;37.50;94197.56;6152512;28;108910;-58
2023/04/12 06:36:10;;;;;;;6.23;5.73;;;;;;;20.34;37.44;94196.94;6163016;28;109021;-60
2023/04/12 06:39:15;;;;;;;6.00;5.50;;;;;;;20.35;37.44;94190.53;6155962;28;109052;-58
2023/04/12 06:42:18;;;;;;;6.07;5.67;;;;;;;20.32;37.56;94203.34;6138244;28;108997;-59
2023/04/12 06:45:21;;;;;;;7.03;6.43;;;;;;;20.34;37.23;94199.59;6127311;28;109151;-58
2023/04/12 06:48:25;;;;;;;6.07;5.57;;;;;;;20.35;37.62;94199.28;6138612;28;109051;-57
2023/04/12 06:51:29;;;;;;;5.80;5.40;;;;;;;20.35;37.58;94190.53;6138377;28;108913;-64
2023/04/12 06:54:33;;;;;;;5.63;5.23;;;;;;;20.36;37.35;94186.78;6133589;28;109961;-58
2023/04/12 06:57:36;;;;;;;5.60;5.20;;;;;;;20.34;37.93;94173.03;6132931;28;109177;-62
2023/04/12 07:00:39;;;;;;;6.30;5.80;;;;;;;20.36;37.41;94173.50;6137294;28;109019;-63
2023/04/12 07:03:42;;;;;;;5.53;5.13;;;;;;;20.36;36.99;94171.63;6138312;28;108961;-64
2023/04/12 07:06:47;;;;;;;5.40;5.00;;;;;;;20.36;37.09;94168.19;6127722;28;108939;-62
2023/04/12 07:09:51;;;;;;;6.17;5.67;;;;;;;20.36;37.22;94155.69;6139200;28;108878;-61
2023/04/12 07:12:54;;;;;;;5.83;5.30;;;;;;;20.43;37.08;94166.59;6137568;28;108981;-62
2023/04/12 07:15:59;;;;;;;5.73;5.33;;;;;;;20.48;36.82;94174.38;6137138;28;109082;-62
2023/04/12 07:19:02;;;;;;;5.50;5.10;;;;;;;20.55;37.00;94160.63;6127929;28;110541;-63
2023/04/12 07:22:07;;;;;;;4.87;4.53;;;;;;;20.58;37.22;94158.13;6138409;28;109025;-62
2023/04/12 07:25:10;;;;;;;5.63;5.20;;;;;;;20.63;36.92;94149.19;6138453;28;108858;-63
2023/04/12 07:28:13;;;;;;;5.73;5.30;;;;;;;20.69;37.01;94142.63;6138195;28;108876;-62
2023/04/12 07:31:16;;;;;;;5.33;4.93;;;;;;;20.72;36.88;94139.31;6127926;28;109131;-64
2023/04/12 07:34:20;;;;;;;5.00;4.60;;;;;;;20.73;36.87;94145.41;6138324;28;108891;-63
2023/04/12 07:37:24;;;;;;;5.13;4.73;;;;;;;20.74;36.81;94160.25;6137990;28;108915;-62
2023/04/12 07:40:28;;;;;;;5.10;4.70;;;;;;;20.75;36.86;94157.28;6146815;28;108885;-66
2023/04/12 07:43:31;;;;;;;4.57;4.27;;;;;;;20.82;36.64;94157.56;6160307;28;108925;-64
2023/04/12 07:46:34;;;;;;;5.10;4.70;;;;;;;20.86;36.63;94163.81;6162276;28;109003;-63
2023/04/12 07:49:37;;;;;;;4.70;4.37;;;;;;;20.88;36.60;94169.59;6162604;28;108958;-63
2023/04/12 07:52:42;;;;;;;4.67;4.37;;;;;;;20.87;36.54;94160.06;6150497;28;109176;-62
2023/04/12 07:55:45;;;;;;;4.77;4.37;;;;;;;20.87;36.31;94159.28;6161546;28;108909;-62
2023/04/12 07:58:49;;;;;;;5.00;4.30;;;;;;;20.89;36.21;94147.22;6162014;28;108945;-62
2023/04/12 08:01:52;;;;;;;4.40;4.10;;;;;;;20.88;36.39;94145.66;6162261;28;108801;-63
2023/04/12 08:04:55;;;;;;;5.27;4.87;;;;;;;20.85;36.70;94148.19;6151214;28;109064;-62
2023/04/12 08:07:59;;;;;;;4.50;4.20;;;;;;;20.86;36.54;94139.88;6160609;28;108964;-62
2023/04/12 08:11:05;;;;;;;4.63;4.33;;;;;;;20.84;36.46;94147.41;6140745;28;108683;-62
2023/04/12 08:14:09;;;;;;;4.67;4.37;;;;;;;20.82;36.27;94146.91;6130896;28;108908;-62
2023/04/12 08:17:12;;;;;;;4.23;3.90;;;;;;;20.81;36.50;94129.41;6131592;28;109085;-62
2023/04/12 08:20:15;;;;;;;4.13;3.80;;;;;;;20.79;36.63;94141.47;6136980;28;108946;-62
2023/04/12 08:23:20;;;;;;;4.27;3.97;;;;;;;20.78;36.43;94146.00;6136914;28;109003;-62
2023/04/12 08:26:25;;;;;;;4.00;3.70;;;;;;;20.78;36.32;94153.19;6127231;28;109000;-64
2023/04/12 08:29:28;;;;;;;4.40;4.00;;;;;;;20.80;36.28;94154.44;6137357;28;108898;-58
2023/04/12 08:32:31;;;;;;;4.60;4.20;;;;;;;20.84;36.08;94152.72;6137204;28;108928;-59
2023/04/12 08:35:34;;;;;;;4.27;3.97;;;;;;;20.91;36.42;94149.56;6137250;28;108832;-60
2023/04/12 08:38:39;;;;;;;3.43;3.23;;;;;;;20.94;36.24;94143.59;6128487;28;110024;-58
2023/04/12 08:41:49;;;;;;;4.30;4.00;;;;;;;20.99;35.96;94140.75;6160824;28;109023;-59
2023/04/12 08:44:52;;;;;;;3.90;3.60;;;;;;;20.99;36.31;94146.06;6160483;28;109196;-59
2023/04/12 08:47:56;;;;;;;3.70;3.40;;;;;;;21.04;36.23;94139.81;6160240;28;109232;-60
2023/04/12 08:51:00;;;;;;;4.00;3.70;;;;;;;21.05;35.99;94139.50;6153249;28;109312;-61
2023/04/12 08:54:06;;;;;;;3.93;3.63;;;;;;;21.06;36.08;94129.66;6160881;28;108862;-59
2023/04/12 08:57:10;;;;;;;4.00;3.70;;;;;;;21.08;36.08;94127.44;6160692;28;108930;-60
2023/04/12 09:00:15;;;;;;;3.50;3.30;;;;;;;21.12;35.88;94123.03;6149788;28;108913;-60
2023/04/12 09:03:18;;;;;;;4.13;3.83;;;;;;;21.16;35.65;94114.09;6160430;28;108911;-60
2023/04/12 09:06:22;;;;;;;3.80;3.50;;;;;;;21.22;35.75;94133.31;6140635;28;108987;-58
2023/04/12 09:09:44;;;;;;;3.30;3.10;;;;;;;21.25;35.47;94106.06;6143303;28;109407;-58
2023/04/12 09:12:48;;;;;;;3.73;3.43;;;;;;;21.27;35.79;94114.50;6151166;28;109266;-60
2023/04/12 09:15:54;;;;;;;3.30;3.10;;;;;;;21.33;35.72;94107.09;6160695;28;108771;-60
2023/04/12 09:19:01;;;;;;;4.07;3.77;;;;;;;21.32;35.50;94103.66;6160729;28;109089;-59
2023/04/12 09:22:04;;;;;;;3.40;3.20;;;;;;;21.33;35.73;94091.91;6158522;28;108929;-59
2023/04/12 09:25:09;;;;;;;3.70;3.40;;;;;;;21.36;35.62;94099.28;6154858;28;109465;-58
2023/04/12 09:28:24;;;;;;;3.13;2.93;;;;;;;21.35;35.69;94089.72;6164646;28;108826;-58
2023/04/12 09:31:28;;;;;;;3.90;3.20;;;;;;;21.37;35.74;94082.19;6164589;28;108896;-58
2023/04/12 09:34:31;;;;;;;3.20;3.00;;;;;;;21.38;35.29;94086.41;6154099;28;108966;-58
2023/04/12 09:37:34;;;;;;;3.90;3.60;;;;;;;21.38;35.51;94082.97;6164596;28;108882;-59
2023/04/12 09:40:39;;;;;;;3.23;3.03;;;;;;;21.37;35.64;94090.19;6146774;28;109009;-59
2023/04/12 09:43:43;;;;;;;3.50;3.20;;;;;;;21.37;35.34;94081.41;6139660;28;108885;-58
2023/04/12 09:46:51;;;;;;;3.30;3.10;;;;;;;21.38;35.41;94086.41;6128666;28;108995;-58
2023/04/12 09:49:55;;;;;;;3.40;3.10;;;;;;;21.38;35.57;94075.78;6139748;28;108902;-59
2023/04/12 09:52:59;;;;;;;3.00;2.80;;;;;;;21.38;35.59;94075.78;6139750;28;108908;-58
2023/04/12 09:56:05;;;;;;;3.27;3.07;;;;;;;21.38;35.62;94065.13;6139443;28;108860;-61
2023/04/12 09:59:09;;;;;;;2.80;2.60;;;;;;;21.37;35.30;94066.22;6129639;28;108886;-58
2023/04/12 10:02:17;;;;;;;2.73;2.53;;;;;;;21.35;35.49;94057.78;6140981;28;109096;-60
2023/04/12 10:05:21;;;;;;;3.20;3.00;;;;;;;21.31;35.78;94051.53;6139720;28;108940;-58
2023/04/12 10:08:26;;;;;;;3.30;3.00;;;;;;;21.30;35.96;94034.03;6129278;28;108898;-58
2023/04/12 10:11:32;;;;;;;3.00;2.80;;;;;;;21.27;35.64;94032.00;6163917;28;108955;-58
2023/04/12 10:14:36;;;;;;;2.80;2.20;;;;;;;21.30;35.65;94049.22;6164288;28;108867;-59
2023/04/12 10:17:41;;;;;;;3.10;2.90;;;;;;;21.27;35.86;94040.00;6163481;28;109116;-60
2023/04/12 10:20:46;;;;;;;2.80;2.60;;;;;;;21.26;35.77;94037.66;6153213;28;108891;-59
2023/04/12 10:23:49;;;;;;;2.70;2.50;;;;;;;21.23;35.48;94046.31;6163193;28;108881;-59
2023/04/12 10:26:57;;;;;;;2.87;2.67;;;;;;;21.21;35.82;94028.00;6163295;28;108913;-58
2023/04/12 10:30:22;;;;;;;2.90;2.70;;;;;;;21.20;35.69;94037.88;6163508;28;108919;-61
2023/04/12 10:33:27;;;;;;;2.27;2.17;;;;;;;21.21;35.93;94031.44;6157506;28;108876;-60
2023/04/12 10:36:52;;;;;;;3.07;2.87;;;;;;;21.19;35.53;94041.63;6162936;28;108894;-60
2023/04/12 10:39:55;;;;;;;2.50;2.30;;;;;;;21.20;35.69;94035.22;6151603;28;108966;-59
2023/04/12 10:43:27;;;;;;;2.73;2.53;;;;;;;21.18;35.46;94029.44;6128603;28;109227;-68
2023/04/12 10:46:52;;;;;;;2.57;2.37;;;;;;;21.18;35.85;94023.34;6093727;28;109094;-60
2023/04/12 10:50:23;;;;;;;2.80;2.60;;;;;;;21.17;35.57;94001.28;6138085;28;108884;-63
2023/04/12 10:53:26;;;;;;;2.50;2.30;;;;;;;21.17;35.40;94006.59;6133939;28;108892;-60
2023/04/12 10:56:39;;;;;;;2.50;2.30;;;;;;;21.17;35.87;94000.47;6133526;28;108927;-60
2023/04/12 10:59:55;;;;;;;2.60;2.40;;;;;;;21.17;35.69;93976.53;6139006;28;108437;-59
2023/04/12 11:03:10;;;;;;;2.60;2.40;;;;;;;21.15;35.63;93986.72;6139138;28;108802;-59
2023/04/12 11:06:14;;;;;;;2.37;2.27;;;;;;;21.14;35.55;93971.84;6127872;28;109106;-59
2023/04/12 11:09:39;;;;;;;2.63;2.43;;;;;;;21.12;35.87;93984.72;6144752;28;108895;-59
2023/04/12 11:12:49;;;;;;;2.27;2.13;;;;;;;21.14;35.88;93988.59;6162649;28;108926;-59
2023/04/12 11:15:56;;;;;;;2.53;2.33;;;;;;;21.11;35.91;93991.91;6158651;28;108879;-60
2023/04/12 11:19:00;;;;;;;2.30;2.10;;;;;;;21.10;35.66;94002.88;6156938;28;108949;-59
2023/04/12 11:22:04;;;;;;;2.20;2.10;;;;;;;21.09;35.90;93982.72;6161906;28;108953;-59
2023/04/12 11:25:08;;;;;;;2.80;2.60;;;;;;;21.09;35.67;93985.38;6162385;28;108898;-58
2023/04/12 11:28:17;;;;;;;1.90;1.80;;;;;;;21.07;35.60;93995.56;6152430;28;108978;-59
2023/04/12 11:31:33;;;;;;;2.20;2.00;;;;;;;21.06;35.92;93992.13;6162790;28;109235;-58
2023/04/12 11:34:37;;;;;;;2.43;2.33;;;;;;;21.05;35.68;93976.47;6162105;28;108918;-59
2023/04/12 11:37:40;;;;;;;2.83;2.63;;;;;;;21.03;35.93;93989.31;6162037;28;109017;-59
2023/04/12 11:40:43;;;;;;;2.33;2.13;;;;;;;21.00;36.07;93984.59;6133968;28;108943;-58
2023/04/12 11:43:47;;;;;;;2.20;2.00;;;;;;;21.00;36.07;93981.94;6138100;28;108900;-59
2023/04/12 11:46:52;;;;;;;2.47;2.27;;;;;;;20.99;35.69;93983.06;6137131;28;108950;-58
2023/04/12 11:49:56;;;;;;;2.03;1.93;;;;;;;20.97;35.47;93971.97;6135520;28;108911;-59
2023/04/12 11:53:12;;;;;;;2.03;1.93;;;;;;;20.96;35.63;93978.38;6130053;28;108887;-58
2023/04/12 11:56:15;;;;;;;2.10;2.00;;;;;;;20.96;35.70;93992.47;6137372;28;108896;-59
2023/04/12 11:59:18;;;;;;;2.43;2.23;;;;;;;20.96;35.74;93983.72;6137350;28;108993;-60
2023/04/12 12:02:23;;;;;;;2.03;1.93;;;;;;;20.92;35.80;93971.06;6126491;28;108995;-60
2023/04/12 12:05:28;;;;;;;2.30;2.10;;;;;;;20.92;35.72;93992.34;6137311;28;109164;-59
2023/04/12 12:08:32;;;;;;;2.30;2.10;;;;;;;20.92;35.69;93991.56;6137119;28;108833;-59
2023/04/12 12:11:35;;;;;;;2.10;2.00;;;;;;;20.91;35.69;93992.66;6161204;28;109079;-59
2023/04/12 12:14:38;;;;;;;2.40;2.20;;;;;;;20.90;35.89;93983.91;6151546;28;109783;-59
2023/04/12 12:17:43;;;;;;;2.33;2.13;;;;;;;20.88;35.85;93972.81;6161261;28;108909;-59
2023/04/12 12:20:49;;;;;;;2.23;2.03;;;;;;;20.87;35.93;93968.59;6161172;28;108878;-60
2023/04/12 12:23:53;;;;;;;2.30;2.10;;;;;;;20.85;35.79;93972.69;6160426;28;109025;-60
2023/04/12 12:26:57;;;;;;;2.07;1.97;;;;;;;20.86;36.08;93985.66;6150023;28;109090;-59
2023/04/12 12:30:03;;;;;;;2.30;2.10;;;;;;;20.84;35.95;93979.88;6160865;28;108914;-59
2023/04/12 12:33:07;;;;;;;2.30;2.10;;;;;;;20.83;35.71;93982.84;6161057;28;109022;-59
2023/04/12 12:36:11;;;;;;;2.50;2.30;;;;;;;20.84;35.78;93987.09;6152802;28;110341;-60
2023/04/12 12:39:14;;;;;;;1.77;1.67;;;;;;;20.84;35.97;93976.47;6155308;28;108895;-60
2023/04/12 12:42:17;;;;;;;2.10;2.00;;;;;;;20.84;35.91;93979.13;6136687;28;109011;-58
2023/04/12 12:45:22;;;;;;;2.23;2.10;;;;;;;20.83;35.75;93988.94;6137215;28;108853;-58
2023/04/12 12:48:27;;;;;;;2.00;1.90;;;;;;;20.82;36.11;93970.66;6125703;28;108860;-58
2023/04/12 12:51:30;;;;;;;2.63;2.43;;;;;;;20.83;35.78;93980.97;6137361;28;108998;-58
2023/04/12 12:54:34;;;;;;;1.60;1.50;;;;;;;20.82;36.15;93973.31;6137334;28;108924;-59
2023/04/12 12:57:43;;;;;;;2.03;1.93;;;;;;;20.82;36.10;93991.94;6137255;28;108912;-59
2023/04/12 13:01:04;;;;;;;1.80;1.70;;;;;;;20.80;35.86;93984.28;6129900;28;108913;-59
2023/04/12 13:04:09;;;;;;;2.10;1.77;;;;;;;20.80;35.94;93994.91;6140913;28;108865;-59
2023/04/12 13:07:12;;;;;;;1.73;1.63;;;;;;;20.79;35.80;93980.06;6142247;28;109067;-59
2023/04/12 13:10:15;;;;;;;2.40;2.20;;;;;;;20.79;35.93;93990.69;6146677;28;108853;-60
2023/04/12 13:13:18;;;;;;;1.90;1.80;;;;;;;20.79;35.72;93987.25;6165341;28;108898;-59
2023/04/12 13:16:22;;;;;;;1.73;1.63;;;;;;;20.79;36.05;93976.63;6166669;28;108901;-58
2023/04/12 13:19:30;;;;;;;1.70;1.60;;;;;;;20.78;35.97;93986.47;6165759;28;108879;-58
2023/04/12 13:22:33;;;;;;;1.77;1.67;;;;;;;20.79;35.94;93990.69;6155919;28;108857;-59
2023/04/12 13:25:36;;;;;;;1.83;1.73;;;;;;;20.79;35.93;94009.31;6165207;28;109063;-58
2023/04/12 13:28:39;;;;;;;1.60;1.50;;;;;;;20.78;35.94;93997.13;6165941;28;108867;-58
2023/04/12 13:31:43;;;;;;;1.90;1.80;;;;;;;20.79;36.08;93992.56;6166462;28;108931;-60
2023/04/12 13:34:47;;;;;;;1.80;1.70;;;;;;;20.79;36.04;94017.28;6155083;28;108872;-59
2023/04/12 13:37:51;;;;;;;1.70;1.60;;;;;;;20.78;36.00;94006.97;6165132;28;108606;-58
2023/04/12 13:40:55;;;;;;;1.70;1.60;;;;;;;20.77;35.82;93990.25;6165109;28;109019;-60
2023/04/12 13:43:58;;;;;;;1.50;1.40;;;;;;;20.78;35.98;94013.06;6160115;28;109023;-59
2023/04/12 13:47:01;;;;;;;1.70;1.60;;;;;;;20.79;36.02;94001.34;6158423;28;109113;-59
2023/04/12 13:50:06;;;;;;;1.60;1.50;;;;;;;20.80;35.94;94004.78;6164465;28;108959;-58
2023/04/12 13:53:10;;;;;;;1.50;1.40;;;;;;;20.78;35.70;93997.13;6163969;28;108946;-58
2023/04/12 13:56:14;;;;;;;1.60;1.50;;;;;;;20.77;35.75;94000.09;6152181;28;109101;-59
2023/04/12 13:59:17;;;;;;;1.63;1.53;;;;;;;20.78;35.72;94013.06;6163737;28;108996;-60
2023/04/12 14:02:20;;;;;;;1.70;1.60;;;;;;;20.78;35.89;94007.75;6163739;28;109043;-60
2023/04/12 14:05:25;;;;;;;1.50;1.40;;;;;;;20.77;35.82;94019.50;6163797;28;109057;-71
2023/04/12 14:08:29;;;;;;;1.50;1.40;;;;;;;20.77;35.95;94011.50;6153245;28;109378;-58
2023/04/12 14:11:45;;;;;;;1.90;1.80;;;;;;;20.76;35.96;94001.97;6153690;28;109049;-58
2023/04/12 14:14:49;;;;;;;1.73;1.63;;;;;;;20.76;35.92;94009.97;6139776;28;108963;-58
2023/04/12 14:17:52;;;;;;;1.80;1.33;;;;;;;20.76;35.87;94003.84;6134585;28;109052;-58
2023/04/12 14:20:58;;;;;;;1.50;1.40;;;;;;;20.76;36.14;94012.63;6133901;28;108973;-58